WALL/BPN METAR and TAF weather

Enter ICAO airport designator
Station Type Date Time Source
WALL METAR 2024/04/15 08:00 UTC NOAA

WALL 150800Z 08004KT 9999 FEW020 30/25 Q1008 NOSIG


Station Type Date Time Source
WALL Decoded METAR 2024/04/15 08:00 UTC NOAA

Station name not available
Apr 15, 2024 - 04:00 AM EDT / 2024.04.15 0800 UTC
Wind: from the E (080 degrees) at 5 MPH (4 KT):0
Visibility: greater than 7 mile(s):0
Sky conditions: mostly clear
Temperature: 86 F (30 C)
Heat index: 96.8 F (36.0 C):1
Dew Point: 77 F (25 C)
Relative Humidity: 74%
Pressure (altimeter): 29.77 in. Hg (1008 hPa)
ob: WALL 150800Z 08004KT 9999 FEW020 30/25 Q1008 NOSIG
cycle: 8

Station Type Date Time Source
WALL TAF 2024/04/15 06:00 UTC NOAA